KCOS/COS METAR and TAF weather

Enter ICAO airport designator
Station Type Date Time Source
KCOS METAR 2021/07/30 23:54 UTC NOAA

KCOS 302354Z 13008KT 10SM BKN110 BKN200 32/06 A3021 RMK AO2 SLP130 CB DSNT NW MOV NW T03170056 10339 20300 56010


Station Type Date Time Source
KCOS Decoded METAR 2021/07/30 23:54 UTC NOAA

COLORADO SPRINGS MUNI, CO, United States (KCOS) 38-49N 104-43W 1856M
Jul 30, 2021 - 07:54 PM EDT / 2021.07.30 2354 UTC
Wind: from the SE (130 degrees) at 9 MPH (8 KT):0
Visibility: 10 mile(s):0
Sky conditions: mostly cloudy
Weather: Cumulonimbus clouds observed
Temperature: 89.1 F (31.7 C)
Dew Point: 42.1 F (5.6 C)
Relative Humidity: 19%
Pressure (altimeter): 30.21 in. Hg (1023 hPa)
Pressure tendency: 0.03 inches (1.0 hPa) lower than three hours ago
ob: KCOS 302354Z 13008KT 10SM BKN110 BKN200 32/06 A3021 RMK AO2 SLP130 CB DSNT NW MOV NW T03170056 10339 20300 56010
cycle: 0

Station Type Date Time Source
KCOS TAF 2021/07/30 18:24 UTC NOAA

TAF KCOS 301722Z 3018/3118 12010KT P6SM FEW090 SCT250
FM310000 14012KT P6SM SCT120 SCT250
FM310100 34015G30KT P6SM VCTS BKN090CB BKN250
FM310300 34014G24KT P6SM SCT100 SCT250
FM311000 36012KT P6SM SCT120 SCT250
FM311600 36015G25KT P6SM VCSH BKN060

Example: see airport list